aviador You're here:

SLCB Decoded Metar

COCHABAMBA in BOLIVIA
Report Time2017-10-20 12:00:00
UTC Time2017-10-20 12:31:20
Flight Rules mvfr MVFR
WindCalm
Visibility7000 m
Phenomena:N/A
Clouds:Few 033 Hf
Expected CloudBase > 4,800 ft AGL from Temp-Dew spread
CeilingNone
Temp19°C (ISA +21)
Dew Point07°C (46% RH)
AAT18.3°C
QNH1024 hPa
Density Alt10,499 ft
Elevation8,360 ft
Report Wrong Elevation
Raw Report
SLCB 201200Z 00000KT 7000 FEW033 19/07 Q1024=

Extra information for SLCB:More info

Metar Taf Metar & Taf Last 4 Metars F.Rules Stats Wind Profile Meteogram Temp Stats Airport Information Weather charts Add Link Nearby VenuesMetar ALERT Operation Metar Decoded Social comments